createdAt,value
2023-03-27T00:00:31.919Z,93
2023-03-27T00:01:31.930Z,93
2023-03-27T00:02:32.009Z,93
2023-03-27T00:03:32.066Z,93
2023-03-27T00:04:31.926Z,93
2023-03-27T00:05:32.029Z,93
2023-03-27T00:06:31.934Z,93
2023-03-27T00:07:31.935Z,93
2023-03-27T00:08:31.936Z,93
2023-03-27T00:09:31.934Z,93
2023-03-27T00:10:31.933Z,93
2023-03-27T00:11:31.910Z,93
2023-03-27T00:12:31.915Z,93
2023-03-27T00:13:31.925Z,93
2023-03-27T00:14:31.924Z,93
2023-03-27T00:15:31.924Z,93
2023-03-27T00:16:31.998Z,93
2023-03-27T00:17:31.995Z,93
2023-03-27T00:18:31.937Z,93
2023-03-27T00:19:31.928Z,93
2023-03-27T00:20:31.914Z,93
2023-03-27T00:21:31.905Z,93
2023-03-27T00:22:31.900Z,94
2023-03-27T00:23:31.959Z,94
2023-03-27T00:24:31.907Z,94
2023-03-27T00:25:31.908Z,94
2023-03-27T00:26:31.930Z,94
2023-03-27T00:27:31.907Z,94
2023-03-27T00:28:31.902Z,94
2023-03-27T00:29:31.922Z,94
2023-03-27T00:30:32.009Z,94
2023-03-27T00:31:31.953Z,94
2023-03-27T00:32:31.969Z,94
2023-03-27T00:33:31.910Z,94
2023-03-27T00:34:31.931Z,94
2023-03-27T00:35:31.940Z,94
2023-03-27T00:36:31.921Z,94
2023-03-27T00:37:31.897Z,94
2023-03-27T00:38:31.911Z,94
2023-03-27T00:39:31.928Z,94
2023-03-27T00:40:32.032Z,94
2023-03-27T00:41:31.913Z,94
2023-03-27T00:42:31.917Z,93
2023-03-27T00:43:31.911Z,94
2023-03-27T00:44:31.907Z,94
2023-03-27T00:45:31.897Z,93
2023-03-27T00:46:32.100Z,93
2023-03-27T00:47:31.946Z,93
2023-03-27T00:48:31.925Z,93
2023-03-27T00:49:31.917Z,93
2023-03-27T00:50:31.938Z,93
2023-03-27T00:51:31.950Z,93
2023-03-27T00:52:31.931Z,93
2023-03-27T00:53:31.909Z,93
2023-03-27T00:54:31.909Z,93
2023-03-27T00:55:31.920Z,93
2023-03-27T00:56:31.973Z,93
2023-03-27T00:57:31.906Z,93
2023-03-27T00:58:31.935Z,93
2023-03-27T00:59:31.912Z,93
2023-03-27T01:00:31.983Z,93
2023-03-27T01:01:31.929Z,93
2023-03-27T01:02:32.018Z,93
2023-03-27T01:03:31.986Z,93
2023-03-27T01:04:31.894Z,93
2023-03-27T01:05:31.949Z,93
2023-03-27T01:06:31.912Z,93
2023-03-27T01:07:31.920Z,93
2023-03-27T01:08:31.966Z,93
2023-03-27T01:09:31.913Z,93
2023-03-27T01:10:31.911Z,93
2023-03-27T01:11:31.904Z,93
2023-03-27T01:12:32.834Z,93
2023-03-27T01:13:31.889Z,93
2023-03-27T01:14:31.899Z,93
2023-03-27T01:15:31.944Z,93
2023-03-27T01:16:32.091Z,93
2023-03-27T01:17:31.912Z,93
2023-03-27T01:18:31.909Z,93
2023-03-27T01:19:31.883Z,93
2023-03-27T01:20:31.948Z,93
2023-03-27T01:21:31.959Z,93
2023-03-27T01:22:31.906Z,93
2023-03-27T01:23:35.832Z,93
2023-03-27T01:24:31.930Z,93
2023-03-27T01:25:31.927Z,93
2023-03-27T01:26:36.195Z,93
2023-03-27T01:27:31.921Z,93
2023-03-27T01:28:31.935Z,93
2023-03-27T01:29:31.950Z,93
2023-03-27T01:30:31.924Z,93
2023-03-27T01:31:31.992Z,93
2023-03-27T01:32:31.985Z,93
2023-03-27T01:33:31.927Z,94
2023-03-27T01:34:31.955Z,94
2023-03-27T01:35:31.985Z,94
2023-03-27T01:36:31.913Z,94
2023-03-27T01:37:31.921Z,94
2023-03-27T01:38:31.902Z,94
2023-03-27T01:39:31.908Z,94
2023-03-27T01:40:32.002Z,94
2023-03-27T01:41:32.062Z,94
2023-03-27T01:42:32.068Z,94
2023-03-27T01:43:32.034Z,94
2023-03-27T01:44:43.358Z,94
2023-03-27T01:45:31.999Z,94
2023-03-27T01:46:32.066Z,94
2023-03-27T01:47:32.067Z,94
2023-03-27T01:48:32.039Z,94
2023-03-27T01:49:32.068Z,94
2023-03-27T01:50:32.024Z,94
2023-03-27T01:51:32.007Z,94
2023-03-27T01:52:32.090Z,94
2023-03-27T01:53:32.051Z,94
2023-03-27T01:54:32.108Z,94
2023-03-27T01:55:32.061Z,93
2023-03-27T01:56:32.003Z,93
2023-03-27T01:57:31.928Z,93
2023-03-27T01:58:31.906Z,93
2023-03-27T01:59:31.898Z,93
2023-03-27T02:00:52.319Z,93
2023-03-27T02:01:31.990Z,93
2023-03-27T02:02:32.026Z,93
2023-03-27T02:03:31.926Z,93
2023-03-27T02:04:31.952Z,93
2023-03-27T02:05:31.994Z,93
2023-03-27T02:06:31.929Z,93
2023-03-27T02:07:31.912Z,93
2023-03-27T02:08:31.935Z,93
2023-03-27T02:09:31.933Z,93
2023-03-27T02:10:31.934Z,93
2023-03-27T02:11:31.893Z,92
2023-03-27T02:12:32.228Z,92
2023-03-27T02:13:31.898Z,92
2023-03-27T02:14:31.952Z,93
2023-03-27T02:15:31.905Z,93
2023-03-27T02:16:32.007Z,93
2023-03-27T02:17:31.934Z,92
2023-03-27T02:18:31.968Z,92
2023-03-27T02:19:31.894Z,92
2023-03-27T02:20:31.913Z,92
2023-03-27T02:21:31.904Z,92
2023-03-27T02:22:38.200Z,92
2023-03-27T02:23:31.912Z,92
2023-03-27T02:24:31.908Z,92
2023-03-27T02:25:31.878Z,92
2023-03-27T02:26:31.906Z,92
2023-03-27T02:27:31.891Z,92
2023-03-27T02:28:31.953Z,92
2023-03-27T02:29:31.928Z,92
2023-03-27T02:30:31.940Z,92
2023-03-27T02:31:34.635Z,92
2023-03-27T02:32:32.045Z,92
2023-03-27T02:33:31.889Z,92
2023-03-27T02:34:31.936Z,92
2023-03-27T02:35:31.953Z,92
2023-03-27T02:36:31.951Z,91
2023-03-27T02:37:32.284Z,91
2023-03-27T02:38:31.929Z,91
2023-03-27T02:39:31.921Z,91
2023-03-27T02:40:31.904Z,91
2023-03-27T02:41:31.899Z,91
2023-03-27T02:42:31.921Z,91
2023-03-27T02:43:31.902Z,91
2023-03-27T02:44:32.001Z,91
2023-03-27T02:45:31.972Z,91
2023-03-27T02:46:31.938Z,91
2023-03-27T02:47:31.954Z,91
2023-03-27T02:48:32.091Z,91
2023-03-27T02:49:31.935Z,91
2023-03-27T02:50:31.946Z,91
2023-03-27T02:51:31.918Z,91
2023-03-27T02:52:31.928Z,91
2023-03-27T02:53:31.899Z,90
2023-03-27T02:54:32.204Z,91
2023-03-27T02:55:31.896Z,90
2023-03-27T02:56:31.951Z,90
2023-03-27T02:57:31.904Z,90
2023-03-27T02:58:31.921Z,90
2023-03-27T02:59:31.908Z,90
2023-03-27T03:00:31.917Z,90
2023-03-27T03:01:31.946Z,90
2023-03-27T03:02:32.014Z,90
2023-03-27T03:03:32.010Z,90
2023-03-27T03:04:32.084Z,90
2023-03-27T03:05:31.919Z,90
2023-03-27T03:06:31.938Z,90
2023-03-27T03:07:31.921Z,90
2023-03-27T03:08:31.925Z,90
2023-03-27T03:09:31.907Z,90
2023-03-27T03:10:31.921Z,90
2023-03-27T03:11:32.058Z,90
2023-03-27T03:12:32.069Z,90
2023-03-27T03:13:32.058Z,90
2023-03-27T03:14:32.083Z,90
2023-03-27T03:15:32.035Z,90
2023-03-27T03:16:31.984Z,90
2023-03-27T03:17:32.042Z,90
2023-03-27T03:18:32.062Z,90
2023-03-27T03:19:31.958Z,90
2023-03-27T03:20:31.904Z,90
2023-03-27T03:21:31.941Z,90
2023-03-27T03:22:32.052Z,90
2023-03-27T03:23:32.051Z,90
2023-03-27T03:24:31.972Z,90
2023-03-27T03:25:31.906Z,90
2023-03-27T03:26:31.958Z,90
2023-03-27T03:27:32.102Z,90
2023-03-27T03:28:32.028Z,90
2023-03-27T03:29:31.988Z,90
2023-03-27T03:30:32.038Z,90
2023-03-27T03:31:31.907Z,90
2023-03-27T03:32:32.110Z,90
2023-03-27T03:33:32.088Z,90
2023-03-27T03:34:31.971Z,90
2023-03-27T03:35:32.058Z,90
2023-03-27T03:36:31.913Z,90
2023-03-27T03:37:31.923Z,90
2023-03-27T03:38:37.665Z,90
2023-03-27T03:39:31.878Z,90
2023-03-27T03:40:32.017Z,90
2023-03-27T03:41:31.927Z,90
2023-03-27T03:42:31.944Z,90
2023-03-27T03:43:31.990Z,90
2023-03-27T03:44:32.070Z,90
2023-03-27T03:45:32.049Z,90
2023-03-27T03:46:32.091Z,90
2023-03-27T03:47:32.004Z,89
2023-03-27T03:48:31.931Z,90
2023-03-27T03:49:32.065Z,90
2023-03-27T03:50:31.932Z,90
2023-03-27T03:51:31.898Z,90
2023-03-27T03:52:31.909Z,90
2023-03-27T03:53:31.908Z,90
2023-03-27T03:54:31.897Z,90
2023-03-27T03:55:31.932Z,90
2023-03-27T03:56:31.949Z,90
2023-03-27T03:57:31.895Z,90
2023-03-27T03:58:34.762Z,90
2023-03-27T03:59:31.908Z,90
2023-03-27T04:00:31.901Z,90
2023-03-27T04:01:31.935Z,90
2023-03-27T04:02:31.969Z,90
2023-03-27T04:03:31.988Z,90
2023-03-27T04:04:31.947Z,90
2023-03-27T04:05:31.909Z,90
2023-03-27T04:06:31.951Z,90
2023-03-27T04:07:31.918Z,90
2023-03-27T04:08:31.926Z,90
2023-03-27T04:09:31.886Z,90
2023-03-27T04:10:31.934Z,90
2023-03-27T04:11:31.889Z,90
2023-03-27T04:12:31.908Z,90
2023-03-27T04:13:31.875Z,90
2023-03-27T04:14:31.930Z,90
2023-03-27T04:15:31.917Z,90
2023-03-27T04:16:31.937Z,91
2023-03-27T04:17:31.956Z,91
2023-03-27T04:18:32.022Z,91
2023-03-27T04:19:31.920Z,91
2023-03-27T04:20:31.902Z,91
2023-03-27T04:21:31.911Z,91
2023-03-27T04:22:31.900Z,91
2023-03-27T04:23:31.915Z,91
2023-03-27T04:24:31.906Z,91
2023-03-27T04:25:31.869Z,91
2023-03-27T04:26:31.930Z,91
2023-03-27T04:27:31.892Z,91
2023-03-27T04:28:31.891Z,91
2023-03-27T04:29:31.903Z,91
2023-03-27T04:30:31.950Z,91
2023-03-27T04:31:31.934Z,91
2023-03-27T04:32:31.936Z,91
2023-03-27T04:33:31.906Z,91
2023-03-27T04:34:31.958Z,91
2023-03-27T04:35:31.954Z,91
2023-03-27T04:36:32.032Z,91
2023-03-27T04:37:31.878Z,91
2023-03-27T04:38:31.927Z,91
2023-03-27T04:39:31.897Z,90
2023-03-27T04:40:31.933Z,91
2023-03-27T04:41:31.870Z,91
2023-03-27T04:42:32.198Z,91
2023-03-27T04:43:31.896Z,91
2023-03-27T04:44:31.909Z,91
2023-03-27T04:45:31.879Z,91
2023-03-27T04:46:31.990Z,91
2023-03-27T04:47:31.988Z,91
2023-03-27T04:48:31.950Z,91
2023-03-27T04:49:31.892Z,91
2023-03-27T04:50:31.932Z,91
2023-03-27T04:51:31.890Z,91
2023-03-27T04:52:31.921Z,91
2023-03-27T04:53:31.915Z,91
2023-03-27T04:54:31.992Z,91
2023-03-27T04:55:31.937Z,91
2023-03-27T04:56:31.944Z,91
2023-03-27T04:57:31.924Z,91
2023-03-27T04:58:31.935Z,91
2023-03-27T04:59:32.055Z,91
2023-03-27T05:00:31.958Z,91
2023-03-27T05:01:31.957Z,91
2023-03-27T05:02:32.019Z,91
2023-03-27T05:03:31.939Z,91
2023-03-27T05:04:31.864Z,91
2023-03-27T05:05:31.930Z,91
2023-03-27T05:06:31.903Z,91
2023-03-27T05:07:31.895Z,91
2023-03-27T05:08:31.903Z,91
2023-03-27T05:09:31.935Z,90
2023-03-27T05:10:31.885Z,91
2023-03-27T05:11:31.909Z,90
2023-03-27T05:12:32.231Z,90
2023-03-27T05:13:31.926Z,90
2023-03-27T05:14:31.893Z,90
2023-03-27T05:15:31.914Z,90
2023-03-27T05:16:31.968Z,90
2023-03-27T05:17:31.911Z,90
2023-03-27T05:18:31.884Z,90
2023-03-27T05:19:31.915Z,90
2023-03-27T05:20:31.953Z,90
2023-03-27T05:21:31.950Z,90
2023-03-27T05:22:31.886Z,90
2023-03-27T05:23:31.894Z,90
2023-03-27T05:24:31.906Z,90
2023-03-27T05:25:31.974Z,90
2023-03-27T05:26:31.894Z,90
2023-03-27T05:27:31.925Z,90
2023-03-27T05:28:31.908Z,89
2023-03-27T05:29:47.148Z,89
2023-03-27T05:30:31.937Z,90
2023-03-27T05:31:31.906Z,90
2023-03-27T05:32:31.960Z,90
2023-03-27T05:33:31.930Z,90
2023-03-27T05:34:31.947Z,90
2023-03-27T05:35:32.610Z,90
2023-03-27T05:36:31.991Z,90
2023-03-27T05:37:31.907Z,90
2023-03-27T05:38:31.879Z,90
2023-03-27T05:39:31.908Z,90
2023-03-27T05:40:31.918Z,90
2023-03-27T05:41:31.919Z,90
2023-03-27T05:42:32.004Z,90
2023-03-27T05:43:31.923Z,90
2023-03-27T05:44:31.870Z,90
2023-03-27T05:45:31.895Z,90
2023-03-27T05:46:31.988Z,90
2023-03-27T05:47:31.921Z,90
2023-03-27T05:48:31.898Z,90
2023-03-27T05:49:33.926Z,90
2023-03-27T05:50:31.895Z,90
2023-03-27T05:51:32.317Z,90
2023-03-27T05:52:31.877Z,90
2023-03-27T05:53:31.937Z,90
2023-03-27T05:54:31.897Z,90
2023-03-27T05:55:31.911Z,90
2023-03-27T05:56:31.901Z,90
2023-03-27T05:57:31.915Z,90
2023-03-27T05:58:31.883Z,90
2023-03-27T05:59:31.902Z,90
2023-03-27T06:00:31.874Z,90
2023-03-27T06:01:31.950Z,90
2023-03-27T06:02:32.022Z,90
2023-03-27T06:03:32.071Z,90
2023-03-27T06:04:31.912Z,90
2023-03-27T06:05:31.922Z,90
2023-03-27T06:06:31.893Z,90
2023-03-27T06:07:31.912Z,90
2023-03-27T06:08:31.944Z,90
2023-03-27T06:09:31.912Z,90
2023-03-27T06:10:31.886Z,90
2023-03-27T06:11:31.900Z,91
2023-03-27T06:12:32.372Z,91
2023-03-27T06:13:31.940Z,91
2023-03-27T06:14:31.875Z,91
2023-03-27T06:15:31.941Z,91
2023-03-27T06:16:32.025Z,91
2023-03-27T06:17:31.948Z,91
2023-03-27T06:18:31.906Z,91
2023-03-27T06:19:31.902Z,91
2023-03-27T06:20:31.908Z,91
2023-03-27T06:21:31.906Z,91
2023-03-27T06:22:31.861Z,91
2023-03-27T06:23:31.934Z,91
2023-03-27T06:24:31.881Z,90
2023-03-27T06:25:31.918Z,90
2023-03-27T06:26:31.902Z,90
2023-03-27T06:27:31.901Z,90
2023-03-27T06:28:31.895Z,90
2023-03-27T06:29:31.938Z,89
2023-03-27T06:30:31.893Z,90
2023-03-27T06:31:31.926Z,89
2023-03-27T06:32:32.062Z,89
2023-03-27T06:33:31.918Z,89
2023-03-27T06:34:31.897Z,89
2023-03-27T06:35:32.001Z,89
2023-03-27T06:36:31.886Z,89
2023-03-27T06:37:31.915Z,89
2023-03-27T06:38:31.918Z,89
2023-03-27T06:39:31.897Z,89
2023-03-27T06:40:31.906Z,89
2023-03-27T06:41:31.943Z,88
2023-03-27T06:42:32.556Z,89
2023-03-27T06:43:31.907Z,88
2023-03-27T06:44:31.905Z,89
2023-03-27T08:23:32.047Z,88
2023-03-27T08:24:31.911Z,88
2023-03-27T08:25:31.948Z,88
2023-03-27T08:26:31.959Z,88
2023-03-27T08:27:31.914Z,88
2023-03-27T08:28:31.927Z,88
2023-03-27T08:29:31.929Z,88
2023-03-27T08:30:32.053Z,88
2023-03-27T08:31:31.984Z,88
2023-03-27T08:32:32.522Z,88
2023-03-27T08:33:31.895Z,88
2023-03-27T08:34:31.928Z,88
2023-03-27T08:35:31.946Z,88
2023-03-27T08:36:31.923Z,88
2023-03-27T08:37:31.895Z,88
2023-03-27T08:38:31.944Z,88
2023-03-27T08:39:31.900Z,89
2023-03-27T08:40:31.924Z,88
2023-03-27T08:41:31.916Z,88
2023-03-27T08:42:33.556Z,88
2023-03-27T08:43:31.893Z,88
2023-03-27T08:44:31.925Z,89
2023-03-27T08:45:31.906Z,89
2023-03-27T08:46:31.979Z,89
2023-03-27T08:47:31.924Z,89
2023-03-27T08:48:31.903Z,89
2023-03-27T08:49:31.927Z,89
2023-03-27T08:50:31.922Z,89
2023-03-27T08:51:31.929Z,89
2023-03-27T08:52:31.938Z,89
2023-03-27T08:53:31.900Z,89
2023-03-27T08:54:31.913Z,89
2023-03-27T08:55:31.938Z,89
2023-03-27T08:56:31.890Z,90
2023-03-27T08:57:31.871Z,90
2023-03-27T08:58:31.948Z,89
2023-03-27T08:59:31.959Z,89
2023-03-27T09:00:31.968Z,89
2023-03-27T09:01:31.953Z,89
2023-03-27T09:02:32.013Z,89
2023-03-27T09:03:32.070Z,88
2023-03-27T09:04:31.856Z,89
2023-03-27T09:05:31.904Z,89
2023-03-27T09:06:31.912Z,88
2023-03-27T09:07:31.887Z,89
2023-03-27T09:08:31.906Z,89
2023-03-27T09:09:31.913Z,89
2023-03-27T09:10:31.906Z,89
2023-03-27T09:11:31.883Z,89
2023-03-27T09:12:31.890Z,89
2023-03-27T09:13:31.915Z,88
2023-03-27T09:14:31.888Z,89
2023-03-27T09:15:31.861Z,89
2023-03-27T09:16:31.963Z,89
2023-03-27T09:17:32.006Z,89
2023-03-27T09:18:31.937Z,88
2023-03-27T09:19:31.866Z,88
2023-03-27T09:20:31.921Z,88
2023-03-27T09:21:31.901Z,88
2023-03-27T09:22:32.159Z,88
2023-03-27T09:23:32.028Z,88
2023-03-27T09:24:31.930Z,89
2023-03-27T09:25:31.907Z,89
2023-03-27T09:26:31.907Z,88
2023-03-27T09:27:31.929Z,88
2023-03-27T09:28:31.911Z,88
2023-03-27T09:29:31.940Z,88
2023-03-27T09:30:31.897Z,88
2023-03-27T09:31:32.108Z,88
2023-03-27T09:32:33.587Z,88
2023-03-27T09:33:31.889Z,88
2023-03-27T09:34:31.929Z,88
2023-03-27T09:35:31.949Z,87
2023-03-27T09:36:31.920Z,87
2023-03-27T09:37:31.887Z,88
2023-03-27T09:38:31.907Z,88
2023-03-27T09:39:31.874Z,88
2023-03-27T09:40:31.915Z,89
2023-03-27T09:41:31.965Z,89
2023-03-27T09:42:33.855Z,88
2023-03-27T09:43:31.864Z,89
2023-03-27T09:44:31.908Z,89
2023-03-27T09:45:31.954Z,88
2023-03-27T09:46:31.947Z,88
2023-03-27T09:47:31.976Z,88
2023-03-27T09:48:31.885Z,88
2023-03-27T09:49:31.891Z,88
2023-03-27T09:50:31.854Z,88
2023-03-27T09:51:31.946Z,88
2023-03-27T09:52:31.917Z,87
2023-03-27T09:53:31.945Z,87
2023-03-27T09:54:31.868Z,87
2023-03-27T09:55:31.883Z,87
2023-03-27T09:56:31.927Z,87
2023-03-27T09:57:31.952Z,86
2023-03-27T09:58:31.866Z,86
2023-03-27T09:59:31.881Z,86
2023-03-27T10:00:31.992Z,86
2023-03-27T10:01:31.946Z,87
2023-03-27T10:02:32.750Z,86
2023-03-27T10:03:31.936Z,86
2023-03-27T10:04:31.927Z,86
2023-03-27T10:05:31.885Z,86
2023-03-27T10:06:31.874Z,87
2023-03-27T10:07:31.901Z,87
2023-03-27T10:08:31.880Z,87
2023-03-27T10:09:31.919Z,87
2023-03-27T10:10:31.891Z,87
2023-03-27T10:11:31.885Z,87
2023-03-27T10:12:31.872Z,87
2023-03-27T10:13:31.908Z,87
2023-03-27T10:14:31.887Z,87
2023-03-27T10:15:31.901Z,87
2023-03-27T10:16:31.995Z,88
2023-03-27T10:17:31.949Z,87
2023-03-27T10:18:31.889Z,87
2023-03-27T10:19:31.902Z,88
2023-03-27T10:20:31.864Z,87
2023-03-27T10:21:31.933Z,88
2023-03-27T10:22:31.868Z,88
2023-03-27T10:23:32.010Z,87
2023-03-27T10:24:31.874Z,87
2023-03-27T10:25:31.939Z,87
2023-03-27T10:26:31.895Z,87
2023-03-27T10:27:31.922Z,87
2023-03-27T10:28:31.885Z,88
2023-03-27T10:29:31.952Z,88
2023-03-27T10:30:31.889Z,88
2023-03-27T10:31:31.923Z,88
2023-03-27T10:32:33.434Z,88
2023-03-27T10:33:31.918Z,88
2023-03-27T10:34:31.908Z,88
2023-03-27T10:35:32.716Z,88
2023-03-27T10:36:31.846Z,88
2023-03-27T10:37:31.899Z,88
2023-03-27T10:38:31.940Z,88
2023-03-27T10:39:31.895Z,88
2023-03-27T10:40:31.881Z,89
2023-03-27T10:41:31.894Z,89
2023-03-27T10:42:31.903Z,89
2023-03-27T10:43:31.894Z,89
2023-03-27T10:44:31.863Z,89
2023-03-27T10:45:31.920Z,89
2023-03-27T10:46:31.884Z,89
2023-03-27T10:47:31.934Z,89
2023-03-27T10:48:31.869Z,89
2023-03-27T10:49:31.948Z,89
2023-03-27T10:50:31.927Z,90
2023-03-27T10:51:43.083Z,89
2023-03-27T10:52:31.874Z,89
2023-03-27T10:53:31.983Z,90
2023-03-27T10:54:32.460Z,90
2023-03-27T10:55:31.870Z,89
2023-03-27T10:56:31.839Z,90
2023-03-27T10:57:31.889Z,90
2023-03-27T10:58:31.854Z,90
2023-03-27T10:59:41.474Z,90
2023-03-27T11:00:31.936Z,90
2023-03-27T11:01:31.952Z,90
2023-03-27T11:02:31.947Z,90
2023-03-27T11:03:31.969Z,90
2023-03-27T11:04:31.884Z,90
2023-03-27T11:05:31.993Z,90
2023-03-27T11:06:31.860Z,90
2023-03-27T11:07:31.893Z,90
2023-03-27T11:08:31.897Z,90
2023-03-27T11:09:31.868Z,90
2023-03-27T11:10:31.880Z,90
2023-03-27T11:11:31.868Z,89
2023-03-27T11:12:31.897Z,90
2023-03-27T11:13:31.901Z,90
2023-03-27T11:14:31.834Z,90
2023-03-27T11:15:31.857Z,90
2023-03-27T11:16:31.904Z,90
2023-03-27T11:17:31.911Z,89
2023-03-27T11:18:31.855Z,89
2023-03-27T11:19:31.957Z,89
2023-03-27T11:20:31.912Z,89
2023-03-27T11:21:32.006Z,90
2023-03-27T11:22:32.347Z,90
2023-03-27T11:23:31.866Z,89
2023-03-27T11:24:31.854Z,90
2023-03-27T11:25:31.925Z,90
2023-03-27T11:26:31.900Z,89
2023-03-27T11:27:31.868Z,89
2023-03-27T11:28:32.898Z,89
2023-03-27T11:29:31.912Z,89
2023-03-27T11:30:31.911Z,89
2023-03-27T11:31:31.890Z,89
2023-03-27T11:32:32.789Z,89
2023-03-27T11:33:31.894Z,90
2023-03-27T11:34:31.854Z,90
2023-03-27T11:35:31.914Z,90
2023-03-27T11:36:31.842Z,90
2023-03-27T11:37:31.900Z,89
2023-03-27T11:38:31.931Z,89
2023-03-27T11:39:31.865Z,90
2023-03-27T11:40:31.854Z,90
2023-03-27T11:41:31.861Z,90
2023-03-27T11:42:31.838Z,90
2023-03-27T11:43:31.883Z,90
2023-03-27T11:44:31.858Z,90
2023-03-27T11:45:31.924Z,90
2023-03-27T11:46:31.951Z,90
2023-03-27T11:47:31.895Z,90
2023-03-27T11:48:31.868Z,90
2023-03-27T11:49:31.904Z,90
2023-03-27T11:50:31.902Z,90
2023-03-27T11:51:31.859Z,90
2023-03-27T11:52:32.070Z,90
2023-03-27T11:53:31.898Z,91
2023-03-27T11:54:31.852Z,91
2023-03-27T11:55:32.612Z,91
2023-03-27T11:56:31.838Z,91
2023-03-27T11:57:31.884Z,91
2023-03-27T11:58:31.866Z,91
2023-03-27T11:59:31.845Z,90
2023-03-27T12:00:31.899Z,91
2023-03-27T12:01:31.881Z,91
2023-03-27T12:02:32.142Z,91
2023-03-27T12:03:31.996Z,91
2023-03-27T12:04:31.884Z,91
2023-03-27T12:05:31.912Z,91
2023-03-27T12:06:31.912Z,91
2023-03-27T12:07:36.618Z,90
2023-03-27T12:08:31.862Z,90
2023-03-27T12:09:31.844Z,90
2023-03-27T12:10:31.909Z,90
2023-03-27T12:11:31.864Z,90
2023-03-27T12:12:31.877Z,90
2023-03-27T12:13:41.200Z,91
2023-03-27T12:14:40.424Z,91
2023-03-27T12:15:31.866Z,90
2023-03-27T12:16:31.922Z,91
2023-03-27T12:17:31.863Z,91
2023-03-27T12:18:36.076Z,91
2023-03-27T12:19:38.115Z,91
2023-03-27T12:20:31.852Z,91
2023-03-27T12:21:31.892Z,90
2023-03-27T12:22:31.929Z,90
2023-03-27T12:23:31.862Z,90
2023-03-27T12:24:31.909Z,91
2023-03-27T12:25:33.585Z,91
2023-03-27T12:26:31.865Z,91
2023-03-27T12:27:31.863Z,91
2023-03-27T12:28:31.865Z,90
2023-03-27T12:29:31.877Z,91
2023-03-27T12:30:31.891Z,91
2023-03-27T12:31:31.983Z,91
2023-03-27T12:32:31.865Z,91
2023-03-27T12:33:31.879Z,91
2023-03-27T12:34:31.853Z,91
2023-03-27T12:35:31.934Z,91
2023-03-27T12:36:31.842Z,91
2023-03-27T12:37:31.826Z,91
2023-03-27T12:38:31.912Z,91
2023-03-27T12:39:31.867Z,91
2023-03-27T12:40:31.906Z,92
2023-03-27T12:41:31.888Z,91
2023-03-27T12:42:31.902Z,91
2023-03-27T12:43:31.862Z,91
2023-03-27T12:44:31.841Z,91
2023-03-27T12:45:36.531Z,91
2023-03-27T12:46:31.998Z,91
2023-03-27T12:47:31.912Z,91
2023-03-27T12:48:31.859Z,91
2023-03-27T12:50:31.872Z,91
2023-03-27T12:51:31.882Z,91
2023-03-27T12:52:31.875Z,91
2023-03-27T12:53:31.843Z,91
2023-03-27T12:54:31.884Z,91
2023-03-27T12:55:31.889Z,91
2023-03-27T12:56:31.941Z,91
2023-03-27T12:57:31.965Z,91
2023-03-27T12:58:31.938Z,91
2023-03-27T12:59:31.866Z,91
2023-03-27T13:00:31.881Z,91
2023-03-27T13:01:36.337Z,91
2023-03-27T13:02:31.985Z,91
2023-03-27T13:03:32.015Z,91
2023-03-27T13:04:31.910Z,92
2023-03-27T13:05:31.918Z,92
2023-03-27T13:06:31.887Z,92
2023-03-27T13:07:31.894Z,92
2023-03-27T13:08:31.878Z,91
2023-03-27T13:09:31.884Z,91
2023-03-27T13:10:31.896Z,91
2023-03-27T13:11:31.881Z,91
2023-03-27T13:12:32.019Z,92
2023-03-27T13:13:31.866Z,92
2023-03-27T13:14:31.828Z,91
2023-03-27T13:15:31.956Z,91
2023-03-27T13:16:31.882Z,91
2023-03-27T13:17:31.928Z,91
2023-03-27T13:18:31.868Z,91
2023-03-27T13:19:31.870Z,91
2023-03-27T13:20:31.891Z,91
2023-03-27T13:21:36.059Z,91
2023-03-27T13:22:36.551Z,91
2023-03-27T13:23:31.897Z,91
2023-03-27T13:24:31.847Z,91
2023-03-27T13:25:31.910Z,91
2023-03-27T13:26:31.926Z,91
2023-03-27T13:27:31.964Z,91
2023-03-27T13:28:31.862Z,91
2023-03-27T13:29:31.855Z,91
2023-03-27T13:30:31.843Z,91
2023-03-27T13:31:31.948Z,91
2023-03-27T13:32:31.972Z,90
2023-03-27T13:33:31.855Z,90
2023-03-27T13:34:31.888Z,91
2023-03-27T13:35:31.990Z,91
2023-03-27T13:36:31.921Z,91
2023-03-27T13:37:36.632Z,91
2023-03-27T13:38:31.932Z,91
2023-03-27T13:39:31.859Z,91
2023-03-27T13:40:31.826Z,91
2023-03-27T13:41:31.850Z,91
2023-03-27T13:42:32.654Z,91
2023-03-27T13:43:31.879Z,92
2023-03-27T13:44:31.850Z,92
2023-03-27T13:45:31.851Z,92
2023-03-27T13:46:31.855Z,92
2023-03-27T13:47:31.878Z,92
2023-03-27T13:48:31.855Z,92
2023-03-27T13:49:31.867Z,92
2023-03-27T13:50:31.854Z,92
2023-03-27T13:51:31.884Z,92
2023-03-27T13:52:31.823Z,91
2023-03-27T13:53:31.872Z,91
2023-03-27T13:54:31.899Z,91
2023-03-27T13:55:31.859Z,91
2023-03-27T13:56:31.862Z,91
2023-03-27T13:57:31.868Z,91
2023-03-27T13:58:31.837Z,90
2023-03-27T13:59:31.867Z,91
2023-03-27T14:00:31.930Z,91
2023-03-27T14:01:31.974Z,91
2023-03-27T14:02:31.974Z,91
2023-03-27T14:03:32.048Z,91
2023-03-27T14:04:31.860Z,91
2023-03-27T14:05:31.860Z,91
2023-03-27T14:06:31.851Z,91
2023-03-27T14:07:31.879Z,91
2023-03-27T14:08:31.869Z,91
2023-03-27T14:09:31.855Z,91
2023-03-27T14:10:31.839Z,91
2023-03-27T14:11:31.890Z,92
2023-03-27T14:12:33.579Z,92
2023-03-27T14:13:31.841Z,92
2023-03-27T14:14:31.876Z,92
2023-03-27T14:15:31.885Z,92
2023-03-27T14:16:32.706Z,92
2023-03-27T14:17:31.871Z,92
2023-03-27T14:18:31.854Z,92
2023-03-27T14:19:31.874Z,92
2023-03-27T14:20:31.910Z,92
2023-03-27T14:21:38.747Z,93
2023-03-27T14:22:32.581Z,92
2023-03-27T14:23:31.893Z,93
2023-03-27T14:24:31.835Z,93
2023-03-27T14:25:33.013Z,93
2023-03-27T14:26:31.876Z,93
2023-03-27T14:27:31.878Z,93
2023-03-27T14:28:31.841Z,93
2023-03-27T14:29:31.840Z,93
2023-03-27T14:30:31.847Z,93
2023-03-27T14:31:31.924Z,93
2023-03-27T14:32:32.359Z,93
2023-03-27T14:33:31.828Z,93
2023-03-27T14:34:40.141Z,93
2023-03-27T14:35:31.887Z,93
2023-03-27T14:36:31.840Z,93
2023-03-27T14:37:31.879Z,93
2023-03-27T14:38:31.895Z,93
2023-03-27T14:39:31.883Z,93
2023-03-27T14:40:31.836Z,93
2023-03-27T14:41:31.843Z,93
2023-03-27T14:42:33.012Z,93
2023-03-27T14:43:31.897Z,93
2023-03-27T14:44:31.855Z,93
2023-03-27T14:45:31.876Z,93
2023-03-27T14:46:31.899Z,93
2023-03-27T14:47:31.881Z,93
2023-03-27T14:48:31.832Z,93
2023-03-27T14:49:31.847Z,93
2023-03-27T14:50:31.851Z,93
2023-03-27T14:51:31.870Z,93
2023-03-27T14:52:31.865Z,93
2023-03-27T14:53:31.846Z,93
2023-03-27T14:54:39.147Z,93
2023-03-27T14:55:31.841Z,93
2023-03-27T14:56:31.837Z,93
2023-03-27T14:57:31.834Z,93
2023-03-27T14:58:31.844Z,93
2023-03-27T14:59:31.861Z,93
2023-03-27T15:00:31.886Z,93
2023-03-27T15:01:31.990Z,93
2023-03-27T15:02:32.026Z,93
2023-03-27T15:03:31.961Z,93
2023-03-27T15:04:31.871Z,93
2023-03-27T15:05:31.884Z,93
2023-03-27T15:06:31.829Z,93
2023-03-27T15:07:31.856Z,93
2023-03-27T15:08:31.857Z,93
2023-03-27T15:09:31.877Z,93
2023-03-27T15:10:31.985Z,92
2023-03-27T15:11:31.857Z,92
2023-03-27T15:12:31.836Z,93
2023-03-27T15:13:31.859Z,92
2023-03-27T15:14:31.831Z,92
2023-03-27T15:15:31.863Z,93
2023-03-27T15:16:31.895Z,93
2023-03-27T15:17:31.913Z,92
2023-03-27T15:18:31.885Z,92
2023-03-27T15:19:31.838Z,92
2023-03-27T15:20:31.856Z,92
2023-03-27T15:21:31.848Z,92
2023-03-27T15:22:31.843Z,92
2023-03-27T15:23:31.872Z,92
2023-03-27T15:24:31.934Z,92
2023-03-27T15:25:31.843Z,92
2023-03-27T15:26:31.877Z,92
2023-03-27T15:27:31.869Z,92
2023-03-27T15:28:31.849Z,92
2023-03-27T15:29:31.877Z,91
2023-03-27T15:30:31.828Z,91
2023-03-27T15:31:31.907Z,91
2023-03-27T15:32:32.427Z,91
2023-03-27T15:33:31.882Z,91
2023-03-27T15:34:31.839Z,91
2023-03-27T15:35:32.014Z,91
2023-03-27T15:36:31.824Z,91
2023-03-27T15:37:31.870Z,90
2023-03-27T15:38:31.856Z,90
2023-03-27T15:39:31.873Z,90
2023-03-27T15:40:31.820Z,90
2023-03-27T15:41:31.876Z,90
2023-03-27T15:42:31.828Z,89
2023-03-27T15:43:31.870Z,89
2023-03-27T15:44:32.067Z,89
2023-03-27T15:45:31.861Z,89
2023-03-27T15:46:31.880Z,89
2023-03-27T15:47:31.908Z,89
2023-03-27T15:48:31.849Z,89
2023-03-27T15:49:31.878Z,89
2023-03-27T15:50:31.860Z,88
2023-03-27T15:51:31.861Z,88
2023-03-27T15:52:31.856Z,88
2023-03-27T15:53:31.844Z,89
2023-03-27T15:54:31.824Z,88